W K Kellogg Airport
KBTL : now visible

Airfield :











YOU CAN JOIN US ON...

 
LOGIN :

Register | Disclaimer

   EN    FR    IT 

 









Legend :    VFR   Marginal VFR   IFR   Intensive IFR   Very Intensive IFR
Visi :
Ceiling :
>= 8 km
>= 3000ft
5 to 8 km
1000 to 3000 ft
1500m to 5 km
500 to 1000 ft
800 to 1500m
200 to 500 ft
< 800m
< 200 ft
Symbols :   Thunderstorms  Fog  Heavy snow  Heavy precipitations  Wind > 20 kt






- Airport Elevation : 952 ft


KBTL - W K Kellogg

CURRENT METAR :
  • 081953Z 21008KT 10SM CLR 28/15 A3015 RMK AO2 SLP205 T02780150

EXPIRED METARs :
  • 081853Z 22009G16KT 10SM CLR 27/14 A3016 RMK AO2 SLP209 T02720144
  • 081753Z 21011G18KT 10SM CLR 27/14 A3017 RMK AO2 SLP213 T02670144 10267 20161 58012

TAF KBTL
Valid from the 08 at 19:00 until the 09 at 18:00 UTC


081912Z 0819/0918 22010G18KT P6SM SCT250
FM090000 20006KT P6SM SCT250
KZAU FIR / North America



MET'MAP, your aeronautical weather chart ! - Copyright ORBIFLY December 2007 - Disclaimer

ORBIFLY MET'MAP TEAM :

Programming & Development : Alexandra Zaïnal
Concept & original design : Baudouin d'Aumeries
Assistance for programming : Marc-Olivier Méhu
Technical & hardware support : Manuel Goepfert

Contact : metmap@orbifly.com




SOURCES & CREDITS :

   NOAA       Earth
Advisory